createdAt,value
2017-11-16T00:01:51.523Z,17.52
2017-11-16T00:04:19.028Z,17.23
2017-11-16T00:06:46.540Z,18.25
2017-11-16T00:09:14.845Z,17.60
2017-11-16T00:11:42.348Z,16.87
2017-11-16T00:14:09.853Z,18.90
2017-11-16T00:16:38.132Z,19.48
2017-11-16T00:19:06.404Z,16.20
2017-11-16T00:21:33.916Z,16.35
2017-11-16T00:24:01.416Z,16.35
2017-11-16T00:26:29.694Z,16.70
2017-11-16T00:28:57.973Z,15.30
2017-11-16T00:31:26.273Z,16.92
2017-11-16T00:33:53.774Z,16.55
2017-11-16T00:36:21.301Z,17.52
2017-11-16T00:38:48.800Z,15.98
2017-11-16T00:41:16.312Z,15.93
2017-11-16T00:43:43.839Z,17.05
2017-11-16T00:46:12.113Z,17.50
2017-11-16T00:48:40.372Z,17.02
2017-11-16T00:51:07.865Z,17.12
2017-11-16T00:53:35.378Z,17.40
2017-11-16T00:56:02.897Z,16.17
2017-11-16T00:58:30.396Z,19.50
2017-11-16T01:00:57.908Z,20.95
2017-11-16T01:03:25.405Z,20.52
2017-11-16T01:05:52.903Z,18.17
2017-11-16T01:08:21.208Z,18.20
2017-11-16T01:10:48.720Z,18.37
2017-11-16T01:13:16.218Z,19.60
2017-11-16T01:15:43.717Z,16.75
2017-11-16T01:18:11.261Z,18.48
2017-11-16T01:20:38.765Z,17.75
2017-11-16T01:23:07.032Z,17.08
2017-11-16T01:25:34.532Z,17.45
2017-11-16T01:28:02.033Z,19.30
2017-11-16T01:30:29.544Z,20.80
2017-11-16T01:32:57.061Z,19.85
2017-11-16T01:35:24.560Z,17.90
2017-11-16T01:37:52.075Z,22.62
2017-11-16T01:40:20.377Z,22.33
2017-11-16T01:42:47.889Z,25.27
2017-11-16T01:45:15.418Z,29.17
2017-11-16T01:47:42.944Z,29.10
2017-11-16T01:50:11.208Z,26.83
2017-11-16T01:52:38.720Z,37.08
2017-11-16T01:55:06.237Z,33.80
2017-11-16T01:57:34.504Z,39.13
2017-11-16T02:00:02.326Z,38.30
2017-11-16T02:02:39.828Z,39.50
2017-11-16T02:05:07.348Z,37.95
2017-11-16T02:07:34.864Z,40.42
2017-11-16T02:10:02.385Z,37.13
2017-11-16T02:12:29.883Z,30.95
2017-11-16T02:14:57.401Z,27.20
2017-11-16T02:17:24.904Z,30.92
2017-11-16T02:19:52.425Z,29.92
2017-11-16T02:22:19.933Z,33.47
2017-11-16T02:24:48.223Z,25.83
2017-11-16T02:27:16.488Z,27.50
2017-11-16T02:29:44.756Z,28.42
2017-11-16T02:32:12.276Z,29.20
2017-11-16T02:34:39.788Z,30.90
2017-11-16T02:37:08.053Z,29.70
2017-11-16T02:39:35.556Z,32.15
2017-11-16T02:42:03.060Z,33.78
2017-11-16T02:44:30.580Z,38.08
2017-11-16T02:46:58.104Z,36.67
2017-11-16T02:49:26.384Z,33.90
2017-11-16T02:51:54.653Z,37.20
2017-11-16T02:54:22.917Z,35.97
2017-11-16T02:56:51.210Z,36.92
2017-11-16T02:59:19.497Z,36.03
2017-11-16T03:01:47.000Z,34.70
2017-11-16T03:04:14.528Z,31.20
2017-11-16T03:06:42.061Z,30.80
2017-11-16T03:09:10.337Z,31.10
2017-11-16T03:11:38.606Z,35.25
2017-11-16T03:14:06.909Z,29.92
2017-11-16T03:16:34.411Z,33.15
2017-11-16T03:19:01.960Z,29.12
2017-11-16T03:21:29.466Z,33.75
2017-11-16T03:23:57.736Z,35.67
2017-11-16T03:26:26.047Z,31.08
2017-11-16T03:28:53.556Z,28.70
2017-11-16T03:31:21.054Z,34.10
2017-11-16T03:33:48.552Z,30.52
2017-11-16T03:36:16.065Z,27.92
2017-11-16T03:38:43.570Z,35.45
2017-11-16T03:41:11.104Z,36.33
2017-11-16T03:43:38.604Z,37.20
2017-11-16T03:46:06.140Z,38.25
2017-11-16T03:48:33.671Z,40.08
2017-11-16T03:51:01.190Z,41.83
2017-11-16T03:53:29.466Z,36.80
2017-11-16T03:55:56.961Z,38.30
2017-11-16T03:58:24.488Z,41.37
2017-11-16T04:00:52.756Z,36.13
2017-11-16T04:03:20.290Z,41.45
2017-11-16T04:05:47.828Z,37.03
2017-11-16T04:08:15.324Z,38.38
2017-11-16T04:10:42.824Z,40.15
2017-11-16T04:13:10.345Z,43.65
2017-11-16T04:15:37.870Z,40.35
2017-11-16T04:18:05.388Z,42.33
2017-11-16T04:23:26.776Z,41.90
2017-11-16T04:25:54.295Z,36.38
2017-11-16T04:28:21.837Z,35.13
2017-11-16T04:30:50.112Z,33.50
2017-11-16T04:33:18.376Z,35.55
2017-11-16T04:35:46.645Z,34.88
2017-11-16T04:38:14.187Z,31.87
2017-11-16T04:40:41.700Z,32.60
2017-11-16T04:43:09.217Z,32.72
2017-11-16T04:45:36.723Z,34.13
2017-11-16T04:48:04.245Z,35.13
2017-11-16T04:50:32.525Z,33.03
2017-11-16T04:53:00.798Z,37.17
2017-11-16T04:55:29.085Z,34.50
2017-11-16T04:57:57.381Z,35.78
2017-11-16T05:00:24.892Z,34.75
2017-11-16T05:02:52.441Z,37.05
2017-11-16T05:05:19.975Z,32.90
2017-11-16T05:07:47.473Z,33.63
2017-11-16T05:10:14.973Z,32.65
2017-11-16T05:12:42.503Z,31.35
2017-11-16T05:15:10.808Z,33.00
2017-11-16T05:17:38.308Z,32.53
2017-11-16T05:20:05.805Z,34.80
2017-11-16T05:22:34.114Z,32.63
2017-11-16T05:25:01.608Z,31.27
2017-11-16T05:27:29.102Z,32.83
2017-11-16T05:29:57.381Z,31.05
2017-11-16T05:32:25.674Z,32.22
2017-11-16T05:34:53.349Z,30.55
2017-11-16T05:37:20.884Z,29.00
2017-11-16T05:39:48.521Z,29.90
2017-11-16T05:42:16.829Z,29.23
2017-11-16T05:44:44.337Z,29.05
2017-11-16T05:47:11.862Z,29.40
2017-11-16T05:49:39.356Z,30.65
2017-11-16T05:52:06.869Z,29.20
2017-11-16T05:54:34.414Z,31.12
2017-11-16T05:57:02.681Z,28.90
2017-11-16T05:59:30.948Z,28.83
2017-11-16T06:01:59.212Z,31.92
2017-11-16T06:04:26.756Z,30.60
2017-11-16T06:06:54.276Z,31.27
2017-11-16T06:09:21.780Z,31.90
2017-11-16T06:11:49.309Z,31.12
2017-11-16T06:14:16.810Z,33.05
2017-11-16T06:16:44.324Z,30.05
2017-11-16T06:19:11.857Z,30.33
2017-11-16T06:21:39.374Z,30.00
2017-11-16T06:24:06.897Z,38.05
2017-11-16T06:26:34.397Z,34.55
2017-11-16T06:29:01.942Z,32.95
2017-11-16T06:31:29.448Z,34.85
2017-11-16T06:33:57.715Z,32.67
2017-11-16T06:36:25.993Z,33.42
2017-11-16T06:38:54.252Z,34.42
2017-11-16T06:41:22.521Z,35.10
2017-11-16T06:43:50.017Z,33.55
2017-11-16T06:46:17.540Z,35.92
2017-11-16T06:48:45.038Z,36.97
2017-11-16T06:51:12.532Z,36.58
2017-11-16T06:53:40.167Z,34.70
2017-11-16T06:56:08.056Z,36.20
2017-11-16T06:58:35.560Z,36.30
2017-11-16T07:01:03.868Z,38.03
2017-11-16T07:03:31.370Z,38.20
2017-11-16T07:05:58.917Z,39.33
2017-11-16T07:08:26.429Z,37.88
2017-11-16T07:10:53.927Z,39.03
2017-11-16T07:13:21.565Z,37.85
2017-11-16T07:15:49.102Z,39.45
2017-11-16T07:18:17.376Z,40.10
2017-11-16T07:20:45.644Z,35.90
2017-11-16T07:23:13.909Z,38.05
2017-11-16T07:25:41.446Z,39.40
2017-11-16T07:28:08.959Z,39.53
2017-11-16T07:30:36.504Z,40.88
2017-11-16T07:33:04.789Z,41.08
2017-11-16T07:35:32.292Z,39.83
2017-11-16T07:37:59.833Z,38.47
2017-11-16T07:40:27.340Z,37.25
2017-11-16T07:42:54.849Z,36.80
2017-11-16T07:45:22.347Z,37.10
2017-11-16T07:50:43.960Z,34.30
2017-11-16T07:53:11.493Z,36.45
2017-11-16T07:55:38.996Z,32.75
2017-11-16T07:58:07.272Z,32.75
2017-11-16T08:00:34.785Z,33.00
2017-11-16T08:03:02.316Z,33.60
2017-11-16T08:05:30.642Z,32.03
2017-11-16T08:07:58.157Z,31.40
2017-11-16T08:10:26.432Z,32.08
2017-11-16T08:12:54.697Z,33.05
2017-11-16T08:15:22.963Z,34.00
2017-11-16T08:17:50.500Z,30.40
2017-11-16T08:20:17.996Z,31.00
2017-11-16T08:22:46.256Z,32.97
2017-11-16T08:25:13.749Z,32.05
2017-11-16T08:27:41.260Z,35.55
2017-11-16T08:30:08.761Z,32.97
2017-11-16T08:32:36.261Z,33.25
2017-11-16T08:35:03.813Z,37.15
2017-11-16T08:37:31.329Z,32.38
2017-11-16T08:39:59.597Z,32.08
2017-11-16T08:42:27.902Z,32.25
2017-11-16T08:44:55.417Z,33.92
2017-11-16T08:47:22.922Z,33.95
2017-11-16T08:49:50.417Z,31.55
2017-11-16T08:52:17.916Z,33.40
2017-11-16T08:54:46.197Z,35.95
2017-11-16T08:57:14.476Z,34.75
2017-11-16T08:59:42.737Z,34.00
2017-11-16T09:02:11.110Z,34.60
2017-11-16T09:04:39.373Z,35.85
2017-11-16T09:07:06.878Z,34.67
2017-11-16T09:09:34.401Z,33.55
2017-11-16T09:12:02.670Z,33.53
2017-11-16T09:14:30.165Z,33.08
2017-11-16T09:16:58.030Z,32.72
2017-11-16T09:19:25.528Z,34.67
2017-11-16T09:21:53.029Z,32.42
2017-11-16T09:24:21.338Z,32.65
2017-11-16T09:26:48.839Z,31.87
2017-11-16T09:29:16.355Z,36.30
2017-11-16T09:31:43.870Z,36.05
2017-11-16T09:34:11.580Z,34.25
2017-11-16T09:36:39.096Z,34.45
2017-11-16T09:39:07.368Z,45.08
2017-11-16T09:41:35.676Z,34.47
2017-11-16T09:44:03.220Z,35.63
2017-11-16T09:46:31.492Z,36.35
2017-11-16T09:48:59.757Z,30.35
2017-11-16T09:51:27.265Z,30.40
2017-11-16T09:53:54.789Z,33.00
2017-11-16T09:56:23.072Z,30.17
2017-11-16T09:58:51.332Z,33.05
2017-11-16T10:01:19.597Z,31.30
2017-11-16T10:03:47.144Z,36.20
2017-11-16T10:06:14.643Z,33.17
2017-11-16T10:08:42.148Z,35.55
2017-11-16T10:11:09.651Z,36.28
2017-11-16T10:13:37.928Z,34.13
2017-11-16T10:16:06.214Z,35.83
2017-11-16T10:18:33.734Z,34.53
2017-11-16T10:21:01.293Z,34.53
2017-11-16T10:23:28.791Z,36.80
2017-11-16T10:25:56.305Z,35.00
2017-11-16T10:28:23.831Z,35.40
2017-11-16T10:30:51.337Z,34.15
2017-11-16T10:33:18.852Z,35.10
2017-11-16T10:35:46.385Z,34.50
2017-11-16T10:38:13.890Z,37.05
2017-11-16T10:40:41.389Z,35.67
2017-11-16T10:43:09.666Z,36.80
2017-11-16T10:45:37.966Z,36.65
2017-11-16T10:48:05.476Z,32.75
2017-11-16T10:50:32.974Z,36.22
2017-11-16T10:53:00.489Z,37.17
2017-11-16T10:55:27.989Z,36.58
2017-11-16T10:57:55.523Z,38.50
2017-11-16T11:00:23.798Z,39.40
2017-11-16T11:02:51.505Z,35.88
2017-11-16T11:05:20.415Z,35.67
2017-11-16T11:07:47.946Z,35.42
2017-11-16T11:10:15.445Z,35.30
2017-11-16T11:12:42.948Z,35.10
2017-11-16T11:15:13.469Z,35.92
2017-11-16T11:17:41.746Z,35.15
2017-11-16T11:20:10.013Z,36.63
2017-11-16T11:22:38.297Z,36.53
2017-11-16T11:25:06.572Z,36.92
2017-11-16T11:27:34.836Z,37.90
2017-11-16T11:30:02.338Z,35.47
2017-11-16T11:32:29.850Z,36.20
2017-11-16T11:34:57.371Z,38.00
2017-11-16T11:37:26.522Z,35.17
2017-11-16T11:39:54.816Z,36.13
2017-11-16T11:42:22.329Z,36.45
2017-11-16T11:44:49.864Z,33.65
2017-11-16T11:47:17.365Z,35.10
2017-11-16T11:49:45.650Z,36.22
2017-11-16T11:52:13.917Z,36.45
2017-11-16T11:54:41.417Z,34.65
2017-11-16T11:57:08.913Z,34.60
2017-11-16T11:59:36.458Z,37.13
2017-11-16T12:02:03.961Z,35.00
2017-11-16T12:04:32.241Z,34.30
2017-11-16T12:07:00.525Z,33.58
2017-11-16T12:09:28.788Z,33.83
2017-11-16T12:11:57.077Z,31.02
2017-11-16T12:14:24.617Z,31.05
2017-11-16T12:16:52.892Z,30.30
2017-11-16T12:19:20.408Z,30.90
2017-11-16T12:21:47.912Z,30.42
2017-11-16T12:24:16.192Z,30.52
2017-11-16T12:26:44.551Z,31.37
2017-11-16T12:29:12.053Z,31.90
2017-11-16T12:31:39.572Z,27.85
2017-11-16T12:34:07.079Z,30.35
2017-11-16T12:36:34.600Z,30.48
2017-11-16T12:39:02.876Z,28.95
2017-11-16T12:41:31.141Z,29.85
2017-11-16T12:43:58.700Z,31.77
2017-11-16T12:46:26.381Z,28.90
2017-11-16T12:48:54.880Z,28.80
2017-11-16T12:51:22.386Z,30.90
2017-11-16T12:53:49.880Z,29.12
2017-11-16T12:56:18.269Z,29.95
2017-11-16T12:58:45.785Z,27.08
2017-11-16T13:01:13.302Z,29.45
2017-11-16T13:03:40.824Z,28.77
2017-11-16T13:06:09.100Z,29.20
2017-11-16T13:08:37.376Z,29.00
2017-11-16T13:11:05.972Z,29.90
2017-11-16T13:13:34.660Z,28.42
2017-11-16T13:16:02.937Z,29.27
2017-11-16T13:18:31.305Z,25.90
2017-11-16T13:20:59.593Z,26.37
2017-11-16T13:23:27.125Z,26.37
2017-11-16T13:25:54.630Z,26.27
2017-11-16T13:28:22.314Z,26.42
2017-11-16T13:30:49.823Z,25.60
2017-11-16T13:33:18.088Z,25.73
2017-11-16T13:35:45.697Z,26.90
2017-11-16T13:38:13.191Z,28.25
2017-11-16T13:40:40.701Z,26.17
2017-11-16T13:43:08.200Z,27.08
2017-11-16T13:45:35.720Z,28.65
2017-11-16T13:48:03.341Z,30.23
2017-11-16T13:50:30.854Z,26.83
2017-11-16T13:52:58.368Z,27.70
2017-11-16T13:55:26.632Z,29.00
2017-11-16T13:57:54.129Z,28.80
2017-11-16T14:00:21.630Z,29.05
2017-11-16T14:02:49.144Z,29.12
2017-11-16T14:05:16.791Z,30.88
2017-11-16T14:07:45.060Z,32.20
2017-11-16T14:10:13.346Z,30.60
2017-11-16T14:12:41.627Z,30.50
2017-11-16T14:15:09.128Z,31.35
2017-11-16T14:17:36.626Z,33.05
2017-11-16T14:20:04.904Z,30.70
2017-11-16T14:22:33.191Z,29.48
2017-11-16T14:25:00.853Z,31.05
2017-11-16T14:27:29.116Z,31.50
2017-11-16T14:29:57.377Z,30.83
2017-11-16T14:32:24.880Z,30.17
2017-11-16T14:34:52.392Z,31.48
2017-11-16T14:37:19.901Z,31.98
2017-11-16T14:39:47.420Z,37.10
2017-11-16T14:42:14.926Z,30.65
2017-11-16T14:44:42.554Z,29.95
2017-11-16T14:47:10.820Z,29.42
2017-11-16T14:49:39.098Z,29.87
2017-11-16T14:52:07.591Z,30.60
2017-11-16T14:54:36.072Z,28.98
2017-11-16T14:57:04.336Z,30.83
2017-11-16T14:59:32.829Z,31.33
2017-11-16T15:02:01.305Z,30.62
2017-11-16T15:04:29.573Z,30.48
2017-11-16T15:06:57.853Z,30.95
2017-11-16T15:09:26.225Z,30.02
2017-11-16T15:11:53.724Z,30.40
2017-11-16T15:14:21.221Z,28.95
2017-11-16T15:16:48.817Z,26.10
2017-11-16T15:19:17.095Z,28.25
2017-11-16T15:21:45.468Z,27.48
2017-11-16T15:24:13.800Z,28.73
2017-11-16T15:26:42.254Z,28.73
2017-11-16T15:29:09.752Z,29.63
2017-11-16T15:31:37.261Z,29.40
2017-11-16T15:34:04.761Z,29.05
2017-11-16T15:36:32.368Z,30.42
2017-11-16T15:39:00.713Z,28.77
2017-11-16T15:41:29.839Z,29.08
2017-11-16T15:43:58.122Z,32.40
2017-11-16T15:46:26.380Z,30.15
2017-11-16T15:48:53.963Z,28.08
2017-11-16T15:51:21.470Z,28.83
2017-11-16T15:53:49.156Z,29.00
2017-11-16T15:56:16.656Z,27.90
2017-11-16T15:58:44.158Z,28.20
2017-11-16T16:01:11.652Z,28.58
2017-11-16T16:03:39.979Z,25.83
2017-11-16T16:06:07.477Z,27.50
2017-11-16T16:08:35.752Z,28.70
2017-11-16T16:11:04.036Z,26.67
2017-11-16T16:13:32.302Z,28.33
2017-11-16T16:16:00.639Z,27.75
2017-11-16T16:18:28.133Z,27.73
2017-11-16T16:20:55.646Z,25.50
2017-11-16T16:23:23.173Z,27.65
2017-11-16T16:25:51.441Z,27.08
2017-11-16T16:28:19.725Z,28.02
2017-11-16T16:30:47.382Z,28.70
2017-11-16T16:33:14.957Z,26.50
2017-11-16T16:35:42.604Z,26.62
2017-11-16T16:38:10.191Z,26.37
2017-11-16T16:40:37.693Z,27.77
2017-11-16T16:43:05.272Z,26.37
2017-11-16T16:45:33.544Z,27.58
2017-11-16T16:48:01.945Z,25.77
2017-11-16T16:50:29.461Z,26.33
2017-11-16T16:52:56.985Z,26.55
2017-11-16T16:55:24.623Z,24.80
2017-11-16T16:57:52.141Z,26.30
2017-11-16T17:00:19.955Z,26.10
2017-11-16T17:02:47.453Z,25.35
2017-11-16T17:05:15.338Z,25.12
2017-11-16T17:07:42.889Z,26.50
2017-11-16T17:10:10.590Z,26.08
2017-11-16T17:12:38.104Z,25.48
2017-11-16T17:15:05.620Z,28.62
2017-11-16T17:17:33.124Z,27.08
2017-11-16T17:20:00.634Z,25.58
2017-11-16T17:22:28.155Z,26.20
2017-11-16T17:24:56.433Z,25.55
2017-11-16T17:27:23.953Z,27.02
2017-11-16T17:29:52.403Z,26.30
2017-11-16T17:32:19.916Z,24.60
2017-11-16T17:34:48.941Z,28.70
2017-11-16T17:37:17.324Z,26.33
2017-11-16T17:39:45.593Z,26.17
2017-11-16T17:42:13.871Z,26.58
2017-11-16T17:44:42.137Z,24.87
2017-11-16T17:47:09.649Z,26.42
2017-11-16T17:49:37.272Z,25.70
2017-11-16T17:52:05.554Z,28.02
2017-11-16T17:54:33.824Z,27.10
2017-11-16T17:57:02.110Z,30.77
2017-11-16T17:59:29.629Z,35.17
2017-11-16T18:01:57.131Z,40.47
2017-11-16T18:04:24.781Z,31.30
2017-11-16T18:06:53.044Z,28.30
2017-11-16T18:09:21.325Z,27.55
2017-11-16T18:11:49.821Z,26.90
2017-11-16T18:14:18.084Z,27.95
2017-11-16T18:16:46.345Z,26.60
2017-11-16T18:19:14.612Z,26.90
2017-11-16T18:21:43.617Z,27.77
2017-11-16T18:24:11.133Z,28.50
2017-11-16T18:26:38.624Z,27.98
2017-11-16T18:29:06.892Z,27.35
2017-11-16T18:31:34.584Z,28.23
2017-11-16T18:34:02.849Z,27.58
2017-11-16T18:36:30.468Z,26.58
2017-11-16T18:38:57.974Z,26.70
2017-11-16T18:41:26.256Z,26.87
2017-11-16T18:43:54.673Z,26.92
2017-11-16T18:46:22.184Z,28.90
2017-11-16T18:48:50.460Z,28.52
2017-11-16T18:51:17.976Z,33.78
2017-11-16T18:53:45.701Z,33.13
2017-11-16T18:56:13.961Z,31.92
2017-11-16T18:58:42.232Z,33.72
2017-11-16T19:01:09.773Z,29.45
2017-11-16T19:03:37.400Z,28.27
2017-11-16T19:06:04.916Z,31.52
2017-11-16T19:08:32.429Z,30.17
2017-11-16T19:10:59.925Z,29.23
2017-11-16T19:13:27.440Z,30.02
2017-11-16T19:15:54.952Z,32.38
2017-11-16T19:18:23.224Z,29.73
2017-11-16T19:20:50.905Z,28.23
2017-11-16T19:23:19.189Z,29.55
2017-11-16T19:25:46.840Z,29.00
2017-11-16T19:28:15.116Z,29.02
2017-11-16T19:30:43.393Z,31.25
2017-11-16T19:33:11.663Z,29.40
2017-11-16T19:35:40.153Z,30.95
2017-11-16T19:38:08.532Z,33.28
2017-11-16T19:40:37.008Z,32.85
2017-11-16T19:43:05.266Z,34.45
2017-11-16T19:45:32.777Z,29.92
2017-11-16T19:48:00.281Z,35.05
2017-11-16T19:50:27.792Z,36.08
2017-11-16T19:52:55.289Z,32.22
2017-11-16T19:55:22.982Z,33.75
2017-11-16T19:57:51.247Z,30.37
2017-11-16T20:00:19.518Z,38.40
2017-11-16T20:02:47.019Z,39.78
2017-11-16T20:05:14.648Z,32.95
2017-11-16T20:07:42.936Z,32.10
2017-11-16T20:10:11.204Z,29.05
2017-11-16T20:12:39.468Z,29.52
2017-11-16T20:15:07.733Z,32.97
2017-11-16T20:17:35.237Z,35.15
2017-11-16T20:20:02.753Z,31.70
2017-11-16T20:22:30.249Z,31.60
2017-11-16T20:24:57.755Z,31.95
2017-11-16T20:27:25.268Z,30.25
2017-11-16T20:29:52.764Z,36.28
2017-11-16T20:32:20.268Z,37.45
2017-11-16T20:34:48.648Z,39.55
2017-11-16T20:50:52.301Z,29.73
2017-11-16T20:53:40.511Z,30.15
2017-11-16T20:56:08.029Z,30.75
2017-11-16T20:58:35.550Z,32.10
2017-11-16T21:01:03.061Z,30.15
2017-11-16T21:03:31.488Z,30.90
2017-11-16T21:05:59.187Z,30.02
2017-11-16T21:08:26.776Z,30.95
2017-11-16T21:10:54.288Z,29.92
2017-11-16T21:13:21.789Z,31.20
2017-11-16T21:15:49.307Z,31.95
2017-11-16T21:18:16.897Z,30.90
2017-11-16T21:20:45.167Z,29.17
2017-11-16T21:23:13.440Z,32.90
2017-11-16T21:25:41.709Z,31.25
2017-11-16T21:28:09.249Z,32.35
2017-11-16T21:30:36.744Z,32.05
2017-11-16T21:33:05.008Z,30.58
2017-11-16T21:35:32.613Z,32.47
2017-11-16T21:38:00.111Z,32.92
2017-11-16T21:40:27.623Z,30.73
2017-11-16T21:42:55.125Z,32.28
2017-11-16T21:45:22.676Z,32.75
2017-11-16T21:47:50.189Z,32.58
2017-11-16T21:50:17.707Z,30.58
2017-11-16T21:52:45.207Z,32.33
2017-11-16T21:55:12.708Z,32.45
2017-11-16T21:57:40.204Z,32.28
2017-11-16T22:00:08.515Z,33.97
2017-11-16T22:02:36.032Z,31.30
2017-11-16T22:05:04.301Z,32.20
2017-11-16T22:07:31.830Z,35.35
2017-11-16T22:09:59.343Z,32.50
2017-11-16T22:12:27.625Z,32.17
2017-11-16T22:14:55.135Z,32.17
2017-11-16T22:17:22.632Z,30.90
2017-11-16T22:19:50.923Z,31.00
2017-11-16T22:22:18.448Z,31.02
2017-11-16T22:24:45.953Z,29.67
2017-11-16T22:27:13.457Z,32.20
2017-11-16T22:29:40.992Z,30.33
2017-11-16T22:32:08.533Z,28.95
2017-11-16T22:34:36.034Z,29.08
2017-11-16T22:37:04.640Z,26.23
2017-11-16T22:39:32.931Z,31.25
2017-11-16T22:42:00.457Z,30.62
2017-11-16T22:44:27.979Z,30.20
2017-11-16T22:46:55.522Z,28.52
2017-11-16T22:49:23.016Z,28.98
2017-11-16T22:51:50.562Z,27.10
2017-11-16T22:54:18.076Z,27.87
2017-11-16T22:56:46.361Z,25.88
2017-11-16T22:59:13.867Z,26.77
2017-11-16T23:01:41.365Z,27.13
2017-11-16T23:04:09.628Z,26.77
2017-11-16T23:06:38.325Z,25.95
2017-11-16T23:09:06.617Z,25.35
2017-11-16T23:11:34.128Z,25.42
2017-11-16T23:14:01.665Z,25.60
2017-11-16T23:16:29.184Z,22.35
2017-11-16T23:18:56.690Z,21.02
2017-11-16T23:21:24.189Z,22.73
2017-11-16T23:23:52.456Z,21.45
2017-11-16T23:26:20.754Z,21.33
2017-11-16T23:28:49.028Z,20.37
2017-11-16T23:31:17.292Z,20.05
2017-11-16T23:33:45.591Z,20.48
2017-11-16T23:36:13.092Z,21.55
2017-11-16T23:38:40.613Z,21.77
2017-11-16T23:41:08.153Z,21.35
2017-11-16T23:43:36.433Z,20.37
2017-11-16T23:46:04.737Z,21.70
2017-11-16T23:48:32.240Z,20.12
2017-11-16T23:50:59.813Z,21.25
2017-11-16T23:53:27.325Z,21.42
2017-11-16T23:55:54.828Z,19.37
2017-11-16T23:58:22.329Z,18.83
